createdAt,value
2023-02-08T00:00:05.521Z,100.00
2023-02-08T00:02:35.472Z,100.00
2023-02-08T00:05:03.456Z,100.00
2023-02-08T00:07:32.748Z,100.00
2023-02-08T00:10:00.687Z,100.00
2023-02-08T00:12:29.353Z,100.00
2023-02-08T00:14:57.407Z,100.00
2023-02-08T00:17:25.320Z,100.00
2023-02-08T00:19:53.907Z,100.00
2023-02-08T00:22:21.784Z,100.00
2023-02-08T00:24:52.454Z,100.00
2023-02-08T00:27:21.160Z,100.00
2023-02-08T00:29:49.038Z,100.00
2023-02-08T00:32:17.069Z,100.00
2023-02-08T00:34:44.931Z,100.00
2023-02-08T00:37:12.810Z,100.00
2023-02-08T00:39:40.775Z,100.00
2023-02-08T00:42:09.959Z,100.00
2023-02-08T00:44:37.901Z,100.00
2023-02-08T00:47:05.934Z,100.00
2023-02-08T00:49:33.919Z,100.00
2023-02-08T00:52:01.765Z,100.00
2023-02-08T00:54:29.925Z,100.00
2023-02-08T00:56:57.808Z,100.00
2023-02-08T00:59:27.803Z,100.00
2023-02-08T01:01:55.766Z,100.00
2023-02-08T01:04:24.630Z,100.00
2023-02-08T01:06:52.540Z,100.00
2023-02-08T01:09:20.537Z,100.00
2023-02-08T01:11:50.317Z,100.00
2023-02-08T01:14:18.259Z,100.00
2023-02-08T01:16:47.705Z,100.00
2023-02-08T01:19:15.656Z,100.00
2023-02-08T01:21:44.345Z,100.00
2023-02-08T01:24:12.372Z,100.00
2023-02-08T01:26:40.714Z,100.00
2023-02-08T01:29:09.751Z,100.00
2023-02-08T01:31:39.869Z,100.00
2023-02-08T01:34:10.221Z,100.00
2023-02-08T01:36:39.293Z,100.00
2023-02-08T01:39:11.411Z,100.00
2023-02-08T01:41:43.564Z,100.00
2023-02-08T01:44:44.710Z,100.00
2023-02-08T01:47:12.910Z,100.00
2023-02-08T01:49:42.200Z,100.00
2023-02-08T01:52:13.244Z,100.00
2023-02-08T01:54:45.776Z,100.00
2023-02-08T01:57:13.931Z,100.00
2023-02-08T01:59:45.491Z,100.00
2023-02-08T02:02:18.737Z,100.00
2023-02-08T02:04:51.517Z,100.00
2023-02-08T02:07:21.031Z,100.00
2023-02-08T02:09:54.478Z,100.00
2023-02-08T02:12:22.623Z,100.00
2023-02-08T02:14:52.087Z,100.00
2023-02-08T02:17:20.902Z,100.00
2023-02-08T02:19:58.418Z,100.00
2023-02-08T02:23:03.781Z,100.00
2023-02-08T02:26:01.678Z,100.00
2023-02-08T02:29:10.301Z,100.00
2023-02-08T02:31:56.154Z,100.00
2023-02-08T02:34:32.002Z,100.00
2023-02-08T02:37:07.157Z,100.00
2023-02-08T02:39:42.325Z,100.00
2023-02-08T02:42:29.110Z,100.00
2023-02-08T02:45:10.852Z,100.00
2023-02-08T02:47:48.759Z,100.00
2023-02-08T02:50:25.182Z,100.00
2023-02-08T02:53:01.482Z,100.00
2023-02-08T02:55:32.102Z,100.00
2023-02-08T02:58:02.903Z,100.00
2023-02-08T03:00:32.687Z,100.00
2023-02-08T03:03:02.002Z,100.00
2023-02-08T03:05:30.964Z,100.00
2023-02-08T03:08:22.029Z,100.00
2023-02-08T03:11:15.686Z,100.00
2023-02-08T03:14:16.847Z,100.00
2023-02-08T03:17:01.816Z,100.00
2023-02-08T03:19:37.659Z,100.00
2023-02-08T03:22:14.365Z,100.00
2023-02-08T03:24:50.392Z,100.00
2023-02-08T03:27:26.091Z,100.00
2023-02-08T03:30:00.763Z,100.00
2023-02-08T03:32:37.184Z,100.00
2023-02-08T03:35:11.352Z,100.00
2023-02-08T03:37:42.418Z,100.00
2023-02-08T03:40:15.057Z,100.00
2023-02-08T03:42:46.001Z,100.00
2023-02-08T03:45:19.856Z,100.00
2023-02-08T03:47:50.962Z,100.00
2023-02-08T03:50:23.041Z,100.00
2023-02-08T03:52:53.602Z,100.00
2023-02-08T03:55:24.275Z,100.00
2023-02-08T03:57:57.440Z,100.00
2023-02-08T04:00:26.033Z,100.00
2023-02-08T04:02:58.625Z,100.00
2023-02-08T04:05:29.059Z,100.00
2023-02-08T04:07:56.937Z,100.00
2023-02-08T04:10:24.873Z,100.00
2023-02-08T04:12:52.842Z,100.00
2023-02-08T04:15:22.160Z,100.00
2023-02-08T04:17:50.087Z,100.00
2023-02-08T04:20:18.159Z,100.00
2023-02-08T04:22:47.488Z,100.00
2023-02-08T04:25:15.811Z,100.00
2023-02-08T04:27:43.729Z,100.00
2023-02-08T04:30:13.381Z,100.00
2023-02-08T04:32:41.268Z,100.00
2023-02-08T04:35:09.553Z,100.00
2023-02-08T04:37:37.492Z,100.00
2023-02-08T04:40:07.623Z,100.00
2023-02-08T04:42:36.291Z,100.00
2023-02-08T04:45:04.521Z,100.00
2023-02-08T04:47:32.435Z,100.00
2023-02-08T04:50:00.459Z,100.00
2023-02-08T04:52:28.538Z,100.00
2023-02-08T04:54:56.488Z,100.00
2023-02-08T04:57:25.677Z,100.00
2023-02-08T04:59:53.779Z,100.00
2023-02-08T05:02:21.637Z,100.00
2023-02-08T05:04:49.604Z,100.00
2023-02-08T05:07:17.522Z,100.00
2023-02-08T05:09:45.524Z,100.00
2023-02-08T05:12:13.437Z,100.00
2023-02-08T05:14:42.739Z,100.00
2023-02-08T05:17:10.708Z,100.00
2023-02-08T05:19:38.640Z,100.00
2023-02-08T05:22:06.445Z,100.00
2023-02-08T05:24:34.369Z,100.00
2023-02-08T05:27:02.174Z,100.00
2023-02-08T05:29:30.171Z,100.00
2023-02-08T05:31:59.426Z,100.00
2023-02-08T05:34:27.317Z,100.00
2023-02-08T05:36:56.050Z,100.00
2023-02-08T05:39:23.869Z,100.00
2023-02-08T05:41:52.028Z,100.00
2023-02-08T05:44:20.018Z,100.00
2023-02-08T05:46:48.196Z,100.00
2023-02-08T05:49:17.503Z,100.00
2023-02-08T05:51:45.407Z,100.00
2023-02-08T05:54:13.250Z,100.00
2023-02-08T05:56:41.117Z,100.00
2023-02-08T05:59:10.090Z,100.00
2023-02-08T06:01:38.633Z,100.00
2023-02-08T06:04:07.153Z,100.00
2023-02-08T06:06:36.421Z,100.00
2023-02-08T06:09:04.868Z,100.00
2023-02-08T06:11:33.077Z,100.00
2023-02-08T06:14:01.007Z,100.00
2023-02-08T06:16:28.986Z,100.00
2023-02-08T06:18:57.029Z,100.00
2023-02-08T06:21:24.938Z,100.00
2023-02-08T06:23:54.183Z,100.00
2023-02-08T06:26:22.419Z,100.00
2023-02-08T06:28:50.274Z,100.00
2023-02-08T06:31:18.150Z,100.00
2023-02-08T06:33:46.231Z,100.00
2023-02-08T06:36:14.283Z,100.00
2023-02-08T06:38:42.371Z,100.00
2023-02-08T06:41:11.681Z,100.00
2023-02-08T06:43:40.872Z,100.00
2023-02-08T06:46:08.804Z,100.00
2023-02-08T06:48:37.190Z,100.00
2023-02-08T06:51:05.294Z,100.00
2023-02-08T06:53:33.595Z,100.00
2023-02-08T06:56:01.377Z,100.00
2023-02-08T06:58:31.459Z,100.00
2023-02-08T07:00:59.180Z,100.00
2023-02-08T07:03:27.045Z,100.00
2023-02-08T07:06:04.608Z,100.00
2023-02-08T07:08:33.638Z,100.00
2023-02-08T07:11:01.754Z,100.00
2023-02-08T07:13:30.971Z,100.00
2023-02-08T07:15:58.790Z,100.00
2023-02-08T07:18:26.704Z,100.00
2023-02-08T07:20:54.388Z,100.00
2023-02-08T07:23:22.264Z,100.00
2023-02-08T07:25:58.334Z,100.00
2023-02-08T07:28:26.337Z,100.00
2023-02-08T07:30:55.828Z,100.00
2023-02-08T07:33:24.815Z,100.00
2023-02-08T07:35:53.297Z,100.00
2023-02-08T07:38:21.092Z,100.00
2023-02-08T07:40:48.980Z,100.00
2023-02-08T07:43:16.821Z,100.00
2023-02-08T07:45:56.230Z,100.00
2023-02-08T07:48:24.117Z,100.00
2023-02-08T07:50:51.912Z,100.00
2023-02-08T07:53:20.608Z,100.00
2023-02-08T07:55:48.386Z,100.00
2023-02-08T07:58:16.288Z,100.00
2023-02-08T08:00:44.108Z,100.00
2023-02-08T08:03:13.344Z,100.00
2023-02-08T08:05:42.025Z,100.00
2023-02-08T08:08:10.563Z,100.00
2023-02-08T08:10:39.440Z,100.00
2023-02-08T08:13:07.553Z,100.00
2023-02-08T08:15:35.392Z,100.00
2023-02-08T08:18:03.158Z,100.00
2023-02-08T08:20:32.603Z,100.00
2023-02-08T08:23:01.525Z,100.00
2023-02-08T08:25:29.447Z,100.00
2023-02-08T08:27:57.736Z,100.00
2023-02-08T08:30:25.954Z,100.00
2023-02-08T08:32:53.888Z,100.00
2023-02-08T08:35:21.752Z,100.00
2023-02-08T08:37:50.901Z,100.00
2023-02-08T08:40:18.787Z,100.00
2023-02-08T08:42:46.907Z,100.00
2023-02-08T08:45:14.726Z,100.00
2023-02-08T08:47:42.831Z,100.00
2023-02-08T08:50:10.875Z,100.00
2023-02-08T08:52:40.387Z,100.00
2023-02-08T08:55:10.341Z,100.00
2023-02-08T08:57:38.315Z,100.00
2023-02-08T09:00:06.756Z,100.00
2023-02-08T09:02:35.798Z,100.00
2023-02-08T09:05:05.373Z,100.00
2023-02-08T09:07:34.338Z,100.00
2023-02-08T09:10:02.226Z,100.00
2023-02-08T09:12:31.510Z,100.00
2023-02-08T09:14:59.361Z,100.00
2023-02-08T09:17:27.443Z,100.00
2023-02-08T09:19:55.291Z,100.00
2023-02-08T09:22:23.571Z,100.00
2023-02-08T09:24:53.406Z,100.00
2023-02-08T09:27:21.248Z,100.00
2023-02-08T09:29:50.560Z,100.00
2023-02-08T09:32:18.445Z,100.00
2023-02-08T09:34:46.417Z,100.00
2023-02-08T09:37:14.246Z,100.00
2023-02-08T09:39:42.127Z,100.00
2023-02-08T09:42:36.692Z,100.00
2023-02-08T09:45:31.962Z,100.00
2023-02-08T09:48:07.027Z,100.00
2023-02-08T09:50:39.486Z,100.00
2023-02-08T09:53:15.074Z,100.00
2023-02-08T09:55:47.172Z,100.00
2023-02-08T09:58:23.061Z,100.00
2023-02-08T10:00:54.354Z,99.74
2023-02-08T10:03:34.733Z,96.38
2023-02-08T10:06:03.394Z,94.47
2023-02-08T10:08:35.530Z,94.57
2023-02-08T10:11:17.879Z,93.14
2023-02-08T10:14:05.717Z,92.42
2023-02-08T10:16:59.917Z,89.00
2023-02-08T10:19:43.327Z,86.80
2023-02-08T10:22:24.128Z,84.30
2023-02-08T10:25:35.512Z,76.72
2023-02-08T10:28:31.386Z,77.39
2023-02-08T10:31:07.654Z,76.41
2023-02-08T10:33:43.703Z,77.99
2023-02-08T10:36:16.173Z,82.25
2023-02-08T10:38:46.845Z,80.63
2023-02-08T10:41:19.560Z,78.49
2023-02-08T10:43:52.496Z,76.11
2023-02-08T10:46:26.894Z,70.71
2023-02-08T10:49:08.237Z,72.80
2023-02-08T10:51:38.138Z,77.14
2023-02-08T10:54:06.471Z,76.17
2023-02-08T10:56:45.445Z,80.86
2023-02-08T10:59:18.570Z,79.90
2023-02-08T11:01:48.706Z,79.09
2023-02-08T11:04:18.044Z,78.84
2023-02-08T11:06:47.133Z,80.10
2023-02-08T11:09:27.167Z,76.91
2023-02-08T11:11:55.873Z,77.39
2023-02-08T11:14:45.348Z,76.05
2023-02-08T11:17:27.048Z,77.20
2023-02-08T11:19:56.619Z,76.40
2023-02-08T11:22:26.282Z,78.25
2023-02-08T11:24:59.511Z,75.08
2023-02-08T11:27:34.056Z,74.61
2023-02-08T11:30:21.039Z,69.34
2023-02-08T11:32:51.228Z,65.68
2023-02-08T11:35:22.832Z,62.77
2023-02-08T11:37:52.320Z,56.64
2023-02-08T11:40:23.699Z,51.58
2023-02-08T11:42:52.685Z,49.57
2023-02-08T11:45:23.456Z,47.00
2023-02-08T11:47:52.449Z,46.10
2023-02-08T11:50:28.096Z,46.18
2023-02-08T11:53:00.269Z,47.66
2023-02-08T11:55:30.326Z,46.57
2023-02-08T11:58:02.030Z,48.47
2023-02-08T12:00:34.053Z,47.53
2023-02-08T12:03:05.474Z,47.81
2023-02-08T12:05:45.274Z,51.20
2023-02-08T12:08:21.622Z,49.08
2023-02-08T12:11:04.726Z,48.44
2023-02-08T12:13:48.512Z,46.84
2023-02-08T12:16:34.206Z,48.29
2023-02-08T12:19:25.885Z,46.31
2023-02-08T12:22:02.480Z,45.94
2023-02-08T12:24:41.801Z,46.19
2023-02-08T12:27:27.332Z,45.53
2023-02-08T12:30:04.001Z,45.21
2023-02-08T12:33:04.941Z,46.25
2023-02-08T12:36:04.568Z,46.28
2023-02-08T12:39:24.689Z,47.67
2023-02-08T12:42:15.529Z,46.83
2023-02-08T12:45:00.343Z,46.63
2023-02-08T12:47:58.214Z,44.37
2023-02-08T12:50:35.980Z,45.56
2023-02-08T12:53:12.676Z,46.60
2023-02-08T12:55:44.424Z,43.77
2023-02-08T12:58:25.579Z,46.00
2023-02-08T13:00:56.535Z,45.00
2023-02-08T13:03:36.358Z,44.57
2023-02-08T13:06:07.448Z,46.73
2023-02-08T13:08:41.991Z,45.76
2023-02-08T13:11:20.232Z,44.04
2023-02-08T13:13:56.694Z,44.97
2023-02-08T13:16:28.599Z,45.97
2023-02-08T13:19:04.563Z,45.57
2023-02-08T13:21:38.163Z,45.31
2023-02-08T13:24:08.645Z,46.31
2023-02-08T13:26:40.530Z,46.02
2023-02-08T13:29:18.519Z,45.69
2023-02-08T13:31:52.558Z,47.16
2023-02-08T13:34:30.677Z,44.53
2023-02-08T13:37:01.862Z,46.18
2023-02-08T13:39:37.023Z,44.61
2023-02-08T13:42:09.559Z,46.47
2023-02-08T13:44:39.623Z,45.19
2023-02-08T13:47:08.837Z,46.96
2023-02-08T13:49:53.563Z,47.30
2023-02-08T13:52:53.144Z,47.31
2023-02-08T13:55:53.220Z,47.30
2023-02-08T13:58:37.329Z,47.82
2023-02-08T14:01:17.158Z,47.24
2023-02-08T14:03:45.640Z,46.88
2023-02-08T14:06:24.219Z,45.88
2023-02-08T14:08:58.110Z,45.94
2023-02-08T14:11:40.043Z,46.42
2023-02-08T14:14:19.563Z,45.11
2023-02-08T14:16:58.037Z,45.80
2023-02-08T14:19:26.368Z,46.93
2023-02-08T14:22:03.682Z,46.87
2023-02-08T14:24:34.439Z,46.78
2023-02-08T14:27:10.955Z,45.80
2023-02-08T14:29:40.291Z,47.18
2023-02-08T14:32:08.309Z,46.73
2023-02-08T14:34:39.179Z,47.61
2023-02-08T14:37:28.572Z,47.28
2023-02-08T14:40:29.922Z,46.15
2023-02-08T14:43:00.080Z,47.30
2023-02-08T14:45:31.857Z,47.87
2023-02-08T14:48:06.261Z,47.68
2023-02-08T14:50:43.746Z,48.05
2023-02-08T14:53:24.951Z,47.37
2023-02-08T14:55:57.716Z,46.93
2023-02-08T14:58:30.940Z,47.27
2023-02-08T15:01:03.363Z,46.20
2023-02-08T15:03:34.627Z,47.14
2023-02-08T15:06:27.143Z,47.98
2023-02-08T15:08:56.439Z,46.94
2023-02-08T15:11:27.218Z,47.40
2023-02-08T15:14:00.627Z,47.10
2023-02-08T15:16:35.156Z,48.18
2023-02-08T15:19:04.793Z,48.18
2023-02-08T15:21:36.938Z,48.62
2023-02-08T15:24:14.041Z,48.38
2023-02-08T15:26:46.254Z,50.09
2023-02-08T15:29:27.964Z,50.95
2023-02-08T15:32:02.178Z,52.92
2023-02-08T15:34:30.076Z,54.43
2023-02-08T15:36:58.371Z,55.57
2023-02-08T15:39:33.844Z,57.33
2023-02-08T15:42:02.409Z,58.75
2023-02-08T15:44:32.148Z,59.41
2023-02-08T15:47:03.169Z,60.13
2023-02-08T15:49:34.753Z,60.10
2023-02-08T15:52:03.668Z,61.55
2023-02-08T15:54:31.867Z,62.84
2023-02-08T15:57:04.594Z,64.12
2023-02-08T15:59:36.298Z,65.49
2023-02-08T16:02:23.621Z,67.49
2023-02-08T16:04:51.935Z,69.87
2023-02-08T16:07:28.401Z,71.76
2023-02-08T16:09:58.564Z,73.35
2023-02-08T16:12:28.942Z,73.71
2023-02-08T16:14:57.462Z,74.65
2023-02-08T16:17:38.436Z,75.56
2023-02-08T16:20:22.771Z,76.53
2023-02-08T16:22:57.046Z,77.32
2023-02-08T16:25:33.901Z,77.75
2023-02-08T16:28:02.670Z,77.92
2023-02-08T16:30:30.986Z,78.86
2023-02-08T16:33:07.609Z,79.97
2023-02-08T16:35:40.417Z,81.44
2023-02-08T16:38:10.304Z,82.39
2023-02-08T16:40:51.304Z,83.28
2023-02-08T16:43:22.442Z,83.81
2023-02-08T16:46:25.125Z,85.57
2023-02-08T16:48:56.505Z,86.16
2023-02-08T16:51:27.383Z,87.46
2023-02-08T16:53:57.743Z,87.74
2023-02-08T16:56:25.913Z,88.15
2023-02-08T16:58:53.994Z,89.29
2023-02-08T17:01:24.017Z,89.31
2023-02-08T17:03:53.147Z,90.12
2023-02-08T17:06:28.469Z,89.47
2023-02-08T17:08:56.790Z,89.42
2023-02-08T17:11:24.629Z,89.77
2023-02-08T17:13:53.132Z,90.88
2023-02-08T17:16:23.055Z,90.65
2023-02-08T17:18:51.624Z,92.22
2023-02-08T17:21:19.497Z,92.84
2023-02-08T17:23:48.721Z,92.38
2023-02-08T17:26:22.324Z,93.56
2023-02-08T17:28:51.478Z,93.50
2023-02-08T17:31:19.617Z,94.44
2023-02-08T17:33:48.372Z,95.00
2023-02-08T17:36:16.945Z,95.51
2023-02-08T17:38:46.631Z,95.40
2023-02-08T17:41:18.502Z,95.99
2023-02-08T17:43:47.560Z,96.09
2023-02-08T17:46:17.841Z,96.91
2023-02-08T17:48:48.168Z,97.29
2023-02-08T17:51:17.756Z,97.84
2023-02-08T17:53:46.063Z,97.98
2023-02-08T17:56:18.002Z,97.89
2023-02-08T17:58:48.932Z,97.87
2023-02-08T18:01:21.486Z,97.84
2023-02-08T18:03:50.071Z,98.40
2023-02-08T18:06:18.620Z,97.96
2023-02-08T18:08:46.847Z,98.01
2023-02-08T18:11:20.150Z,98.19
2023-02-08T18:13:49.706Z,98.97
2023-02-08T18:16:19.846Z,98.96
2023-02-08T18:18:47.889Z,99.02
2023-02-08T18:21:18.000Z,99.01
2023-02-08T18:23:46.050Z,98.76
2023-02-08T18:26:17.903Z,98.77
2023-02-08T18:28:46.402Z,99.19
2023-02-08T18:31:16.752Z,98.68
2023-02-08T18:33:45.016Z,97.98
2023-02-08T18:36:13.526Z,97.95
2023-02-08T18:38:45.452Z,97.78
2023-02-08T18:41:15.562Z,98.54
2023-02-08T18:43:44.794Z,98.26
2023-02-08T18:46:18.119Z,98.41
2023-02-08T18:48:47.627Z,98.13
2023-02-08T18:51:19.694Z,98.78
2023-02-08T18:53:50.429Z,98.65
2023-02-08T18:56:21.445Z,98.97
2023-02-08T18:58:51.694Z,99.59
2023-02-08T19:01:22.385Z,99.00
2023-02-08T19:03:51.753Z,98.90
2023-02-08T19:06:22.819Z,98.66
2023-02-08T19:08:52.614Z,99.05
2023-02-08T19:11:22.740Z,99.27
2023-02-08T19:13:52.401Z,98.04
2023-02-08T19:16:22.430Z,97.46
2023-02-08T19:18:50.484Z,97.81
2023-02-08T19:21:19.139Z,97.89
2023-02-08T19:23:47.757Z,98.01
2023-02-08T19:26:19.177Z,98.69
2023-02-08T19:28:47.248Z,99.02
2023-02-08T19:31:19.303Z,98.23
2023-02-08T19:33:49.498Z,98.47
2023-02-08T19:36:18.144Z,98.45
2023-02-08T19:38:46.299Z,98.00
2023-02-08T19:41:17.060Z,98.42
2023-02-08T19:43:45.625Z,97.58
2023-02-08T19:46:14.906Z,98.91
2023-02-08T19:48:44.373Z,98.33
2023-02-08T19:51:12.284Z,99.60
2023-02-08T19:53:40.204Z,98.98
2023-02-08T19:56:10.008Z,99.96
2023-02-08T19:58:38.634Z,99.82
2023-02-08T20:01:08.169Z,99.73
2023-02-08T20:03:36.261Z,99.36
2023-02-08T20:06:06.292Z,99.13
2023-02-08T20:08:33.958Z,99.59
2023-02-08T20:11:01.864Z,100.00
2023-02-08T20:13:29.759Z,99.89
2023-02-08T20:16:00.018Z,100.00
2023-02-08T20:18:28.018Z,100.00
2023-02-08T20:21:03.184Z,100.00
2023-02-08T20:23:33.069Z,100.00
2023-02-08T20:26:05.893Z,100.00
2023-02-08T20:28:33.765Z,99.97
2023-02-08T20:31:01.738Z,96.04
2023-02-08T20:33:29.786Z,94.37
2023-02-08T20:35:57.690Z,92.36
2023-02-08T20:38:25.538Z,91.26
2023-02-08T20:41:02.464Z,92.54
2023-02-08T20:43:30.605Z,93.28
2023-02-08T20:45:58.512Z,94.32
2023-02-08T20:48:26.866Z,93.68
2023-02-08T20:50:54.629Z,93.44
2023-02-08T20:53:22.968Z,93.83
2023-02-08T20:55:50.793Z,94.30
2023-02-08T20:58:19.985Z,94.85
2023-02-08T21:00:47.839Z,95.58
2023-02-08T21:03:15.779Z,94.95
2023-02-08T21:05:43.546Z,94.46
2023-02-08T21:08:11.357Z,94.20
2023-02-08T21:10:39.285Z,91.64
2023-02-08T21:13:07.139Z,91.54
2023-02-08T21:15:36.534Z,91.73
2023-02-08T21:18:04.550Z,91.64
2023-02-08T21:20:32.400Z,90.27
2023-02-08T21:23:00.240Z,90.34
2023-02-08T21:25:28.188Z,90.85
2023-02-08T21:27:57.593Z,90.86
2023-02-08T21:30:25.613Z,90.35
2023-02-08T21:32:54.777Z,91.21
2023-02-08T21:35:22.659Z,88.62
2023-02-08T21:37:50.481Z,88.02
2023-02-08T21:40:18.497Z,88.63
2023-02-08T21:42:46.339Z,89.31
2023-02-08T21:45:14.576Z,89.34
2023-02-08T21:47:42.568Z,88.95
2023-02-08T21:50:29.556Z,89.58
2023-02-08T21:53:14.842Z,87.97
2023-02-08T21:55:46.520Z,85.96
2023-02-08T21:58:14.865Z,87.26
2023-02-08T22:00:42.948Z,87.46
2023-02-08T22:03:11.229Z,87.74
2023-02-08T22:05:57.717Z,89.33
2023-02-08T22:08:25.754Z,89.96
2023-02-08T22:10:58.421Z,90.24
2023-02-08T22:13:26.722Z,89.85
2023-02-08T22:15:54.618Z,87.77
2023-02-08T22:18:22.862Z,88.45
2023-02-08T22:20:53.509Z,88.37
2023-02-08T22:23:21.643Z,87.96
2023-02-08T22:25:49.485Z,88.47
2023-02-08T22:28:17.412Z,89.75
2023-02-08T22:30:48.458Z,90.92
2023-02-08T22:33:16.501Z,89.42
2023-02-08T22:35:44.285Z,90.27
2023-02-08T22:38:13.488Z,91.05
2023-02-08T22:40:42.964Z,91.25
2023-02-08T22:43:11.064Z,92.16
2023-02-08T22:45:39.147Z,93.03
2023-02-08T22:48:07.021Z,93.93
2023-02-08T22:50:35.075Z,92.73
2023-02-08T22:53:02.908Z,93.96
2023-02-08T22:55:32.162Z,94.17
2023-02-08T22:57:59.993Z,95.18
2023-02-08T23:00:27.925Z,95.68
2023-02-08T23:02:55.864Z,96.57
2023-02-08T23:05:23.752Z,96.06
2023-02-08T23:07:51.662Z,97.08
2023-02-08T23:10:19.616Z,97.69
2023-02-08T23:12:48.845Z,98.00
2023-02-08T23:15:16.983Z,97.12
2023-02-08T23:17:44.882Z,96.74
2023-02-08T23:20:13.078Z,96.76
2023-02-08T23:22:40.904Z,96.77
2023-02-08T23:25:08.971Z,96.69
2023-02-08T23:27:37.269Z,95.65
2023-02-08T23:30:09.509Z,96.25
2023-02-08T23:32:37.728Z,96.32
2023-02-08T23:35:05.912Z,96.70
2023-02-08T23:37:33.781Z,97.10
2023-02-08T23:40:01.762Z,96.40
2023-02-08T23:42:29.587Z,95.89
2023-02-08T23:44:59.144Z,96.69
2023-02-08T23:47:29.945Z,97.35
2023-02-08T23:49:57.767Z,97.99
2023-02-08T23:52:25.914Z,98.90
2023-02-08T23:54:54.727Z,98.64
2023-02-08T23:57:22.547Z,99.66
2023-02-08T23:59:50.399Z,100.00
